หน้าหลัก
METAR-TAF:

METAR-TAF

ท่าอากาศยาน :

Manzanillo, คิวบา

ละติจูด: 20-20N, ลองจิจูด: 077-07W, ความสูง: 60 ม.

การสังเกตสภาพอากาศปัจจุบัน

รายงานได้ทำขึ้นเมื่อ 6 ชั่วโมงและ 18 นาทีที่แล้ว ณ เวลา 16:58 UTC
ลม 5 นอตจากตะวันออก/ตะวันออกเฉียงเหนือ, แปรผันระหว่างตะวันออกเฉียงเหนือ และตะวันออกเฉียงใต้
อุณหภูมิ 32°C
ความชื้น 49%
ความกดอากาศ 1013 hPa
ทัศนวิสัย: 9000 ม.
มีเมฆกระจายเป็นบางส่วนที่ความสูง 2500 ฟุต

METAR: MUMZ 241658Z 07005KT 050V140 9000 SCT025 32/20 Q1013

เวลา: 19:16 (23:16 UTC)

การพยากรณ์

รายงานได้ทำขึ้นเมื่อ 12 ชั่วโมงและ 16 นาทีที่แล้ว ณ เวลา 11:00 UTC
การพยากรณ์มีผลตั้งแต่วันที่ 24 ณ เวลา 12 UTC จนถึงวันที่ 24 ณ เวลา 24 UTC
ลม 4 นอตจากทิศทางซึ่งแปรผันได้
ทัศนวิสัย: 9000 ม.
มีเมฆกระจายเป็นบางส่วนที่ความสูง 2000 ฟุต
ชั่วคราว
ตั้งแต่วันที่ 24 ณ เวลา 18 UTC จนถึงวันที่ 24 ณ เวลา 24 UTC
ทัศนวิสัย: 5000 ม.
มีเมฆน้อยที่ความสูง 1800 ฟุต, คิวมูโลนิมบัส.
มีเมฆเป็นส่วนมากเว้นเป็นระยะที่ความสูง 2000 ฟุต
ฝนโปรยปราย, ฝน,

TAF: MUMZ 241100Z 2412/2424 VRB04KT 9000 SCT020 TEMPO 2418/2424 5000 SHRA RA FEW018CB BKN020

สังเกตการณ์สภาพอากาศและพยากรณ์อากาศของสนามบินมากกว่า 4000 แห่ง (รายงาน METAR และ TAF).

สถานีที่ดูได้จะแสดงไว้ด้วยจุดสีเหลืองและสีแดงบนแผนที่.

เลื่อนเมาส์ไปเหนือจุดเพื่อดูชื่อสถานี.

แล้วคลิกเพื่อดูสังเกตการณ์และการพยากรณ์สภาพอากาศ.

ในการเปลี่ยนแผนที่: คลิกที่ปุ่มสีเขียวที่มีกากบาทสีดำเพื่อซูมเข้า; ที่ปุ่มสีเขียวที่มีขีดเพื่อซูมออก; หรือที่ลูกศรสีเขียวเพื่อไปยังแผนที่ที่อยู่ติดกัน.


METAR-TAF: